createdAt,value
2023-05-30T03:10:41.710Z,98631.06
2023-05-30T03:13:28.814Z,98632.63
2023-05-30T03:16:16.533Z,98635.44
2023-05-30T03:19:03.625Z,98638.78
2023-05-30T03:21:51.094Z,98638.50
2023-05-30T03:24:38.883Z,98653.06
2023-05-30T03:27:25.996Z,98641.88
2023-05-30T03:30:14.126Z,98638.34
2023-05-30T03:33:01.381Z,98646.47
2023-05-30T03:35:48.570Z,98647.06
2023-05-30T03:38:35.857Z,98652.44
2023-05-30T03:41:23.110Z,98647.75
2023-05-30T03:44:10.575Z,98659.47
2023-05-30T03:46:58.487Z,98649.47
2023-05-30T03:49:45.545Z,98640.06
2023-05-30T03:52:32.446Z,98648.53
2023-05-30T03:55:21.690Z,98650.88
2023-05-30T03:58:08.578Z,98650.34
2023-05-30T04:00:55.601Z,98649.25
2023-05-30T04:03:46.298Z,98658.50
2023-05-30T04:06:35.517Z,98658.50
2023-05-30T04:09:22.452Z,98664.28
2023-05-30T04:12:09.602Z,98658.88
2023-05-30T04:14:56.641Z,98660.44
2023-05-30T04:17:43.645Z,98664.38
2023-05-30T04:20:30.626Z,98665.28
2023-05-30T04:23:17.567Z,98669.41
2023-05-30T04:26:05.554Z,98663.41
2023-05-30T04:28:57.913Z,98669.63
2023-05-30T04:31:45.152Z,98665.38
2023-05-30T04:34:32.169Z,98669.28
2023-05-30T04:37:19.374Z,98673.78
2023-05-30T04:40:09.776Z,98669.94
2023-05-30T04:42:57.788Z,98682.59
2023-05-30T04:45:46.006Z,98677.47
2023-05-30T04:48:33.476Z,98681.91
2023-05-30T04:51:21.625Z,98681.50
2023-05-30T04:54:08.763Z,98691.06
2023-05-30T04:56:55.734Z,98678.47
2023-05-30T04:59:42.634Z,98685.94
2023-05-30T05:02:30.130Z,98693.75
2023-05-30T05:05:16.975Z,98696.00
2023-05-30T05:08:03.804Z,98698.72
2023-05-30T05:10:50.833Z,98693.56
2023-05-30T05:13:37.700Z,98697.00
2023-05-30T05:16:24.655Z,98706.19
2023-05-30T05:19:11.624Z,98703.25
2023-05-30T05:21:58.503Z,98701.28
2023-05-30T05:24:46.175Z,98702.31
2023-05-30T05:27:34.287Z,98706.47
2023-05-30T05:30:21.164Z,98702.94
2023-05-30T05:33:08.679Z,98712.25
2023-05-30T05:35:55.691Z,98708.66
2023-05-30T05:38:42.532Z,98711.50
2023-05-30T05:41:29.417Z,98710.66
2023-05-30T05:44:16.259Z,98709.81
2023-05-30T05:47:03.244Z,98709.06
2023-05-30T05:49:50.062Z,98709.34
2023-05-30T05:52:36.947Z,98711.31
2023-05-30T05:55:23.839Z,98720.22
2023-05-30T05:58:10.666Z,98721.22
2023-05-30T06:00:57.661Z,98723.56
2023-05-30T06:03:44.873Z,98712.56
2023-05-30T06:06:31.806Z,98712.84
2023-05-30T06:09:19.675Z,98718.75
2023-05-30T06:12:07.972Z,98717.66
2023-05-30T06:14:55.536Z,98721.84
2023-05-30T06:17:42.499Z,98717.75
2023-05-30T06:20:29.534Z,98722.16
2023-05-30T06:22:56.260Z,98727.03
2023-05-30T06:25:23.072Z,98727.09
2023-05-30T06:27:49.626Z,98735.91
2023-05-30T06:30:16.368Z,98730.59
2023-05-30T06:32:44.000Z,98734.69
2023-05-30T06:35:11.358Z,98733.44
2023-05-30T06:37:38.268Z,98730.53
2023-05-30T06:40:05.607Z,98724.84
2023-05-30T06:42:34.354Z,98731.31
2023-05-30T06:45:01.002Z,98726.81
2023-05-30T06:47:27.716Z,98716.22
2023-05-30T06:49:54.358Z,98725.00
2023-05-30T06:52:21.100Z,98735.41
2023-05-30T06:54:47.786Z,98728.22
2023-05-30T06:57:14.425Z,98721.69
2023-05-30T06:59:42.117Z,98729.25
2023-05-30T07:02:08.748Z,98714.97
2023-05-30T07:04:36.395Z,98734.13
2023-05-30T07:07:03.116Z,98730.72
2023-05-30T07:09:29.967Z,98730.38
2023-05-30T07:11:56.631Z,98729.50
2023-05-30T07:14:23.138Z,98721.88
2023-05-30T07:16:49.740Z,98735.28
2023-05-30T07:19:16.353Z,98729.19
2023-05-30T07:21:42.894Z,98727.63
2023-05-30T07:24:10.118Z,98732.16
2023-05-30T07:26:36.858Z,98723.13
2023-05-30T07:29:03.747Z,98732.19
2023-05-30T07:31:30.457Z,98722.53
2023-05-30T07:33:57.975Z,98722.56
2023-05-30T07:36:24.822Z,98709.22
2023-05-30T07:38:52.090Z,98714.75
2023-05-30T07:41:18.653Z,98712.63
2023-05-30T07:43:45.202Z,98713.78
2023-05-30T07:46:11.834Z,98719.78
2023-05-30T07:48:38.463Z,98714.88
2023-05-30T07:51:05.401Z,98723.19
2023-05-30T07:53:31.972Z,98721.38
2023-05-30T07:55:59.584Z,98702.53
2023-05-30T07:58:26.204Z,98699.13
2023-05-30T08:00:52.729Z,98701.81
2023-05-30T08:03:19.447Z,98710.00
2023-05-30T08:05:47.929Z,98711.09
2023-05-30T08:08:14.969Z,98705.66
2023-05-30T08:10:41.565Z,98713.19
2023-05-30T08:13:08.107Z,98712.75
2023-05-30T08:15:35.010Z,98702.59
2023-05-30T08:18:02.358Z,98703.59
2023-05-30T08:20:30.637Z,98708.91
2023-05-30T08:22:57.331Z,98710.69
2023-05-30T08:25:34.239Z,98703.53
2023-05-30T08:28:00.931Z,98711.31
2023-05-30T08:30:27.558Z,98713.63
2023-05-30T08:32:54.727Z,98705.88
2023-05-30T08:35:21.414Z,98708.28
2023-05-30T08:37:48.696Z,98721.94
2023-05-30T08:40:15.839Z,98719.06
2023-05-30T08:42:42.576Z,98709.63
2023-05-30T08:45:09.542Z,98706.63
2023-05-30T08:47:36.807Z,98705.91
2023-05-30T08:50:05.276Z,98702.81
2023-05-30T08:52:33.086Z,98712.06
2023-05-30T08:55:11.591Z,98707.63
2023-05-30T08:57:44.839Z,98717.69
2023-05-30T09:00:15.068Z,98707.91
2023-05-30T09:02:52.240Z,98714.91
2023-05-30T09:05:19.067Z,98709.56
2023-05-30T09:07:49.073Z,98706.84
2023-05-30T09:10:16.427Z,98698.19
2023-05-30T09:12:43.350Z,98696.63
2023-05-30T09:15:10.217Z,98701.00
2023-05-30T09:17:37.451Z,98702.09
2023-05-30T09:20:06.633Z,98702.59
2023-05-30T09:22:33.239Z,98703.31
2023-05-30T09:25:01.904Z,98703.56
2023-05-30T09:27:31.181Z,98697.88
2023-05-30T09:29:57.788Z,98707.06
2023-05-30T09:32:35.554Z,98701.78
2023-05-30T09:35:11.261Z,98701.31
2023-05-30T09:37:44.732Z,98704.91
2023-05-30T09:40:18.413Z,98709.66
2023-05-30T09:42:52.093Z,98699.19
2023-05-30T09:45:23.927Z,98706.84
2023-05-30T09:47:52.502Z,98701.75
2023-05-30T09:50:21.340Z,98700.38
2023-05-30T09:52:53.298Z,98707.88
2023-05-30T09:55:20.866Z,98701.38
2023-05-30T09:57:49.532Z,98701.50
2023-05-30T10:00:31.361Z,98701.19
2023-05-30T10:02:58.960Z,98701.84
2023-05-30T10:05:28.098Z,98703.47
2023-05-30T10:07:59.045Z,98699.09
2023-05-30T10:10:26.432Z,98710.53
2023-05-30T10:12:55.048Z,98696.72
2023-05-30T10:15:24.590Z,98703.34
2023-05-30T10:17:57.422Z,98696.09
2023-05-30T10:20:27.432Z,98694.84
2023-05-30T10:22:54.194Z,98696.38
2023-05-30T10:25:22.403Z,98694.31
2023-05-30T10:27:53.214Z,98701.38
2023-05-30T10:30:27.087Z,98700.63
2023-05-30T10:33:04.003Z,98696.63
2023-05-30T10:35:33.118Z,98702.94
2023-05-30T10:38:05.542Z,98693.13
2023-05-30T10:40:37.926Z,98696.47
2023-05-30T10:43:26.509Z,98684.50
2023-05-30T10:46:19.354Z,98690.84
2023-05-30T10:48:49.013Z,98691.75
2023-05-30T10:51:15.753Z,98693.19
2023-05-30T10:53:47.068Z,98686.13
2023-05-30T10:56:39.285Z,98684.22
2023-05-30T10:59:18.152Z,98680.06
2023-05-30T11:02:00.011Z,98675.00
2023-05-30T11:04:40.624Z,98678.41
2023-05-30T11:07:12.578Z,98666.47
2023-05-30T11:09:43.336Z,98667.38
2023-05-30T11:12:22.960Z,98665.59
2023-05-30T11:14:57.029Z,98669.41
2023-05-30T11:17:34.322Z,98660.22
2023-05-30T11:20:09.790Z,98658.59
2023-05-30T11:22:38.919Z,98656.44
2023-05-30T11:25:26.790Z,98659.22
2023-05-30T11:28:05.867Z,98648.59
2023-05-30T11:30:34.336Z,98651.53
2023-05-30T11:33:01.217Z,98654.59
2023-05-30T11:35:28.938Z,98655.56
2023-05-30T11:37:57.902Z,98652.91
2023-05-30T11:40:25.324Z,98648.66
2023-05-30T11:42:53.143Z,98645.53
2023-05-30T11:45:27.317Z,98651.06
2023-05-30T11:47:54.019Z,98645.41
2023-05-30T11:50:21.590Z,98644.19
2023-05-30T11:52:48.289Z,98644.53
2023-05-30T11:55:15.193Z,98642.72
2023-05-30T11:57:41.969Z,98635.31
2023-05-30T12:00:12.961Z,98637.59
2023-05-30T12:02:40.297Z,98631.97
2023-05-30T12:05:08.159Z,98641.47
2023-05-30T12:07:34.781Z,98639.34
2023-05-30T12:10:01.666Z,98641.44
2023-05-30T12:12:28.808Z,98628.41
2023-05-30T12:14:56.279Z,98623.38
2023-05-30T12:17:25.816Z,98625.38
2023-05-30T12:19:57.366Z,98626.19
2023-05-30T12:22:25.539Z,98621.00
2023-05-30T12:24:53.333Z,98627.84
2023-05-30T12:27:26.310Z,98625.19
2023-05-30T12:29:53.712Z,98625.50
2023-05-30T12:32:30.610Z,98620.28
2023-05-30T12:34:59.180Z,98620.13
2023-05-30T12:37:26.420Z,98620.19
2023-05-30T12:40:01.050Z,98626.47
2023-05-30T12:42:29.035Z,98624.16
2023-05-30T12:45:00.480Z,98614.69
2023-05-30T12:47:28.654Z,98617.66
2023-05-30T12:49:56.692Z,98610.88
2023-05-30T12:52:28.252Z,98614.28
2023-05-30T12:54:55.154Z,98614.00
2023-05-30T12:57:26.487Z,98617.66
2023-05-30T12:59:54.390Z,98610.88
2023-05-30T13:02:25.433Z,98612.59
2023-05-30T13:04:53.345Z,98614.28
2023-05-30T13:07:21.191Z,98611.31
2023-05-30T13:09:48.407Z,98611.44
2023-05-30T13:12:17.040Z,98604.38
2023-05-30T13:14:45.750Z,98606.34
2023-05-30T13:17:13.116Z,98598.56
2023-05-30T13:19:40.004Z,98596.75
2023-05-30T13:22:09.176Z,98603.78
2023-05-30T13:24:36.197Z,98600.84
2023-05-30T13:27:02.930Z,98592.22
2023-05-30T13:29:29.555Z,98585.53
2023-05-30T13:31:56.467Z,98592.03
2023-05-30T13:34:23.161Z,98595.88
2023-05-30T13:36:49.819Z,98588.69
2023-05-30T13:39:16.540Z,98576.75
2023-05-30T13:41:43.308Z,98576.50
2023-05-30T13:44:09.962Z,98588.25
2023-05-30T13:49:08.804Z,98579.81
2023-05-30T13:51:35.788Z,98576.94
2023-05-30T13:54:05.450Z,98572.94
2023-05-30T13:56:32.629Z,98570.44
2023-05-30T13:59:00.297Z,98572.69
2023-05-30T14:01:30.960Z,98575.97
2023-05-30T14:03:58.157Z,98574.97
2023-05-30T14:06:25.277Z,98553.59
2023-05-30T14:08:52.203Z,98578.34
2023-05-30T14:11:18.853Z,98575.03
2023-05-30T14:13:45.577Z,98572.41
2023-05-30T14:16:14.757Z,98574.97
2023-05-30T14:18:46.678Z,98584.44
2023-05-30T14:21:14.151Z,98580.34
2023-05-30T14:23:40.949Z,98580.06
2023-05-30T14:26:07.609Z,98571.00
2023-05-30T14:28:34.623Z,98575.00
2023-05-30T14:31:01.507Z,98570.28
2023-05-30T14:33:28.364Z,98567.63
2023-05-30T14:35:54.967Z,98568.47
2023-05-30T14:38:21.722Z,98560.97
2023-05-30T14:40:48.278Z,98570.84
2023-05-30T14:43:14.878Z,98562.13
2023-05-30T14:45:41.667Z,98558.31
2023-05-30T14:48:09.772Z,98556.19
2023-05-30T14:50:36.696Z,98561.38
2023-05-30T14:53:03.649Z,98563.63
2023-05-30T14:55:30.843Z,98563.66
2023-05-30T14:57:58.309Z,98565.91
2023-05-30T15:00:25.501Z,98565.59
2023-05-30T15:02:52.651Z,98556.56
2023-05-30T15:05:19.933Z,98553.47
2023-05-30T15:07:47.523Z,98564.06
2023-05-30T15:10:14.204Z,98561.94
2023-05-30T15:12:43.010Z,98565.06
2023-05-30T15:15:10.025Z,98554.47
2023-05-30T15:17:37.751Z,98557.16
2023-05-30T15:20:05.571Z,98558.28
2023-05-30T15:22:32.214Z,98554.75
2023-05-30T15:25:01.348Z,98553.19
2023-05-30T15:27:28.759Z,98548.22
2023-05-30T15:29:55.675Z,98546.81
2023-05-30T15:32:22.339Z,98559.50
2023-05-30T15:34:48.948Z,98560.69
2023-05-30T15:37:15.530Z,98556.06
2023-05-30T15:39:42.188Z,98554.41
2023-05-30T15:42:09.019Z,98548.22
2023-05-30T15:44:37.558Z,98549.41
2023-05-30T15:47:04.410Z,98544.00
2023-05-30T15:49:31.635Z,98543.44
2023-05-30T15:51:58.408Z,98536.03
2023-05-30T15:54:26.231Z,98536.75
2023-05-30T15:56:52.990Z,98536.66
2023-05-30T15:59:19.680Z,98540.31
2023-05-30T16:01:46.291Z,98532.66
2023-05-30T16:04:13.369Z,98526.59
2023-05-30T16:06:40.045Z,98540.38
2023-05-30T16:09:06.738Z,98527.81
2023-05-30T16:11:33.557Z,98540.75
2023-05-30T16:14:00.389Z,98546.47
2023-05-30T16:16:28.043Z,98534.72
2023-05-30T16:18:55.526Z,98533.13
2023-05-30T16:21:22.080Z,98537.25
2023-05-30T16:23:48.948Z,98542.19
2023-05-30T16:26:15.636Z,98545.41
2023-05-30T16:28:42.309Z,98554.53
2023-05-30T16:31:09.331Z,98543.56
2023-05-30T16:33:37.204Z,98552.94
2023-05-30T16:36:08.493Z,98547.69
2023-05-30T16:38:40.554Z,98554.44
2023-05-30T16:41:13.716Z,98552.41
2023-05-30T16:43:42.416Z,98555.84
2023-05-30T16:46:10.639Z,98552.75
2023-05-30T16:48:37.637Z,98568.41
2023-05-30T16:51:04.654Z,98561.97
2023-05-30T16:53:31.332Z,98566.84
2023-05-30T16:55:58.107Z,98564.16
2023-05-30T16:58:24.784Z,98559.38
2023-05-30T17:00:51.857Z,98563.97
2023-05-30T17:03:18.597Z,98569.22
2023-05-30T17:06:04.298Z,98564.75
2023-05-30T17:08:51.218Z,98570.41
2023-05-30T17:11:38.097Z,98574.59
2023-05-30T17:14:24.937Z,98577.81
2023-05-30T17:17:11.775Z,98575.84
2023-05-30T17:19:58.645Z,98577.38
2023-05-30T17:22:45.775Z,98581.81
2023-05-30T17:25:35.005Z,98580.50
2023-05-30T17:28:25.435Z,98586.94
2023-05-30T17:31:12.362Z,98586.19
2023-05-30T17:33:59.193Z,98584.13
2023-05-30T17:36:46.224Z,98585.13
2023-05-30T17:39:33.116Z,98582.47
2023-05-30T17:42:20.048Z,98595.47
2023-05-30T17:45:07.724Z,98597.47
2023-05-30T17:47:55.714Z,98601.59
2023-05-30T17:50:42.608Z,98588.97
2023-05-30T17:53:29.624Z,98597.09
2023-05-30T17:56:17.887Z,98600.75
2023-05-30T17:59:07.037Z,98601.22
2023-05-30T18:01:54.027Z,98611.53
2023-05-30T18:04:41.615Z,98615.53
2023-05-30T18:07:28.550Z,98609.47
2023-05-30T18:10:15.559Z,98609.09
2023-05-30T18:13:02.458Z,98626.06
2023-05-30T18:15:49.401Z,98612.22
2023-05-30T18:18:36.309Z,98618.06
2023-05-30T18:21:23.155Z,98626.00
2023-05-30T18:24:10.288Z,98626.56
2023-05-30T18:26:57.141Z,98619.16
2023-05-30T18:29:44.369Z,98630.41
2023-05-30T18:32:31.253Z,98638.19
2023-05-30T18:35:18.157Z,98643.84
2023-05-30T18:38:05.004Z,98644.97
2023-05-30T18:40:51.861Z,98642.84
2023-05-30T18:43:38.716Z,98651.13
2023-05-30T18:46:26.093Z,98651.59
2023-05-30T18:49:13.057Z,98655.59
2023-05-30T18:51:59.971Z,98657.63
2023-05-30T18:54:46.790Z,98657.75
2023-05-30T18:57:33.715Z,98658.66
2023-05-30T19:00:20.750Z,98660.31
2023-05-30T19:03:07.706Z,98664.78
2023-05-30T19:05:54.646Z,98667.75
2023-05-30T19:08:41.557Z,98679.84
2023-05-30T19:11:28.461Z,98685.50
2023-05-30T19:14:15.586Z,98680.94
2023-05-30T19:17:03.094Z,98689.06
2023-05-30T19:19:52.426Z,98689.28
2023-05-30T19:22:39.341Z,98692.03
2023-05-30T19:25:26.444Z,98700.16
2023-05-30T19:28:14.419Z,98696.53
2023-05-30T19:31:02.412Z,98708.00
2023-05-30T19:33:49.332Z,98719.59
2023-05-30T19:36:36.270Z,98715.88
2023-05-30T19:39:23.113Z,98712.66
2023-05-30T19:42:10.064Z,98729.91
2023-05-30T19:44:56.878Z,98733.00
2023-05-30T19:47:43.916Z,98734.09
2023-05-30T19:50:30.798Z,98735.59
2023-05-30T19:53:17.968Z,98739.09
2023-05-30T19:56:05.773Z,98751.19
2023-05-30T19:58:52.726Z,98745.28
2023-05-30T20:01:39.608Z,98750.81
2023-05-30T20:04:26.861Z,98753.19
2023-05-30T20:07:13.766Z,98763.59
2023-05-30T20:10:00.833Z,98764.34
2023-05-30T20:12:47.795Z,98765.91
